sensor_id;sensor_type;location;lat;lon;timestamp;temperature;humidity
36924;DHT22;22841;50.252;18.688;2023-04-06T00:02:13;-0.60;99.90
36924;DHT22;22841;50.252;18.688;2023-04-06T00:04:39;-0.60;99.90
36924;DHT22;22841;50.252;18.688;2023-04-06T00:07:06;-0.50;99.90
36924;DHT22;22841;50.252;18.688;2023-04-06T00:09:32;-0.60;99.90
36924;DHT22;22841;50.252;18.688;2023-04-06T00:11:58;-0.70;99.90
36924;DHT22;22841;50.252;18.688;2023-04-06T00:14:24;-0.80;99.90
36924;DHT22;22841;50.252;18.688;2023-04-06T00:16:50;-0.90;99.90
36924;DHT22;22841;50.252;18.688;2023-04-06T00:19:16;-0.90;99.90
36924;DHT22;22841;50.252;18.688;2023-04-06T00:21:42;-0.90;99.90
36924;DHT22;22841;50.252;18.688;2023-04-06T00:24:08;-1.00;99.90
36924;DHT22;22841;50.252;18.688;2023-04-06T00:26:34;-1.00;99.90
36924;DHT22;22841;50.252;18.688;2023-04-06T00:29:00;-1.00;99.90
36924;DHT22;22841;50.252;18.688;2023-04-06T00:31:27;-0.90;99.90
36924;DHT22;22841;50.252;18.688;2023-04-06T00:33:53;-0.90;99.90
36924;DHT22;22841;50.252;18.688;2023-04-06T00:36:19;-0.90;99.90
36924;DHT22;22841;50.252;18.688;2023-04-06T00:38:45;-0.90;99.90
36924;DHT22;22841;50.252;18.688;2023-04-06T00:41:11;-0.90;99.90
36924;DHT22;22841;50.252;18.688;2023-04-06T00:43:37;-0.90;99.90
36924;DHT22;22841;50.252;18.688;2023-04-06T00:46:03;-1.00;99.90
36924;DHT22;22841;50.252;18.688;2023-04-06T00:48:30;-1.00;99.90
36924;DHT22;22841;50.252;18.688;2023-04-06T00:50:57;-1.00;99.90
36924;DHT22;22841;50.252;18.688;2023-04-06T00:53:23;-1.00;99.90
36924;DHT22;22841;50.252;18.688;2023-04-06T00:55:50;-1.00;99.90
36924;DHT22;22841;50.252;18.688;2023-04-06T00:58:16;-0.90;99.90
36924;DHT22;22841;50.252;18.688;2023-04-06T01:00:42;-0.90;99.90
36924;DHT22;22841;50.252;18.688;2023-04-06T01:03:08;-0.90;99.90
36924;DHT22;22841;50.252;18.688;2023-04-06T01:05:35;-1.10;99.90
36924;DHT22;22841;50.252;18.688;2023-04-06T01:08:06;-1.00;99.90
36924;DHT22;22841;50.252;18.688;2023-04-06T01:10:33;-1.10;99.90
36924;DHT22;22841;50.252;18.688;2023-04-06T01:12:59;-1.10;99.90
36924;DHT22;22841;50.252;18.688;2023-04-06T01:15:26;-1.00;99.90
36924;DHT22;22841;50.252;18.688;2023-04-06T01:17:52;-1.10;99.90
36924;DHT22;22841;50.252;18.688;2023-04-06T01:20:18;-1.10;99.90
36924;DHT22;22841;50.252;18.688;2023-04-06T01:22:44;-1.10;99.90
36924;DHT22;22841;50.252;18.688;2023-04-06T01:25:11;-1.10;99.90
36924;DHT22;22841;50.252;18.688;2023-04-06T01:27:37;-1.10;99.90
36924;DHT22;22841;50.252;18.688;2023-04-06T01:30:03;-1.10;99.90
36924;DHT22;22841;50.252;18.688;2023-04-06T01:32:29;-1.10;99.90
36924;DHT22;22841;50.252;18.688;2023-04-06T01:34:56;-1.10;99.90
36924;DHT22;22841;50.252;18.688;2023-04-06T01:37:22;-1.10;99.90
36924;DHT22;22841;50.252;18.688;2023-04-06T01:39:48;-1.10;99.90
36924;DHT22;22841;50.252;18.688;2023-04-06T01:42:14;-1.10;99.90
36924;DHT22;22841;50.252;18.688;2023-04-06T01:44:40;-1.10;99.90
36924;DHT22;22841;50.252;18.688;2023-04-06T01:47:06;-1.10;99.90
36924;DHT22;22841;50.252;18.688;2023-04-06T01:49:32;-1.20;99.90
36924;DHT22;22841;50.252;18.688;2023-04-06T01:51:58;-1.20;99.90
36924;DHT22;22841;50.252;18.688;2023-04-06T01:54:24;-1.20;99.90
36924;DHT22;22841;50.252;18.688;2023-04-06T01:56:50;-1.20;99.90
36924;DHT22;22841;50.252;18.688;2023-04-06T01:59:18;-1.20;99.90
36924;DHT22;22841;50.252;18.688;2023-04-06T02:01:44;-1.20;99.90
36924;DHT22;22841;50.252;18.688;2023-04-06T02:04:11;-1.20;99.90
36924;DHT22;22841;50.252;18.688;2023-04-06T02:06:37;-1.20;99.90
36924;DHT22;22841;50.252;18.688;2023-04-06T02:09:03;-1.10;99.90
36924;DHT22;22841;50.252;18.688;2023-04-06T02:11:29;-1.10;99.90
36924;DHT22;22841;50.252;18.688;2023-04-06T02:13:56;-1.20;99.90
36924;DHT22;22841;50.252;18.688;2023-04-06T02:16:22;-1.20;99.90
36924;DHT22;22841;50.252;18.688;2023-04-06T02:18:49;-1.20;99.90
36924;DHT22;22841;50.252;18.688;2023-04-06T02:21:16;-1.20;99.90
36924;DHT22;22841;50.252;18.688;2023-04-06T02:23:48;-1.30;99.90
36924;DHT22;22841;50.252;18.688;2023-04-06T02:26:15;-1.30;99.90
36924;DHT22;22841;50.252;18.688;2023-04-06T02:28:42;-1.30;99.90
36924;DHT22;22841;50.252;18.688;2023-04-06T02:31:08;-1.30;99.90
36924;DHT22;22841;50.252;18.688;2023-04-06T02:33:34;-1.30;99.90
36924;DHT22;22841;50.252;18.688;2023-04-06T02:36:00;-1.30;99.90
36924;DHT22;22841;50.252;18.688;2023-04-06T02:38:26;-1.30;99.90
36924;DHT22;22841;50.252;18.688;2023-04-06T02:40:52;-1.30;99.90
36924;DHT22;22841;50.252;18.688;2023-04-06T02:43:20;-1.40;99.90
36924;DHT22;22841;50.252;18.688;2023-04-06T02:45:46;-1.40;99.90
36924;DHT22;22841;50.252;18.688;2023-04-06T02:48:12;-1.40;99.90
36924;DHT22;22841;50.252;18.688;2023-04-06T02:50:38;-1.40;99.90
36924;DHT22;22841;50.252;18.688;2023-04-06T02:53:04;-1.40;99.90
36924;DHT22;22841;50.252;18.688;2023-04-06T02:55:30;-1.40;99.90
36924;DHT22;22841;50.252;18.688;2023-04-06T02:57:56;-1.40;99.90
36924;DHT22;22841;50.252;18.688;2023-04-06T03:00:22;-1.50;99.90
36924;DHT22;22841;50.252;18.688;2023-04-06T03:02:48;-1.40;99.90
36924;DHT22;22841;50.252;18.688;2023-04-06T03:05:14;-1.40;99.90
36924;DHT22;22841;50.252;18.688;2023-04-06T03:07:40;-1.50;99.90
36924;DHT22;22841;50.252;18.688;2023-04-06T03:10:07;-1.50;99.90
36924;DHT22;22841;50.252;18.688;2023-04-06T03:12:33;-1.50;99.90
36924;DHT22;22841;50.252;18.688;2023-04-06T03:14:59;-1.50;99.90
36924;DHT22;22841;50.252;18.688;2023-04-06T03:17:25;-1.60;99.90
36924;DHT22;22841;50.252;18.688;2023-04-06T03:19:51;-1.60;99.90
36924;DHT22;22841;50.252;18.688;2023-04-06T03:22:17;-1.60;99.90
36924;DHT22;22841;50.252;18.688;2023-04-06T03:24:43;-1.60;99.90
36924;DHT22;22841;50.252;18.688;2023-04-06T03:27:09;-1.60;99.90
36924;DHT22;22841;50.252;18.688;2023-04-06T03:29:36;-1.60;99.90
36924;DHT22;22841;50.252;18.688;2023-04-06T03:32:02;-1.50;99.90
36924;DHT22;22841;50.252;18.688;2023-04-06T03:34:28;-1.50;99.90
36924;DHT22;22841;50.252;18.688;2023-04-06T03:36:54;-1.60;99.90
36924;DHT22;22841;50.252;18.688;2023-04-06T03:39:20;-1.60;99.90
36924;DHT22;22841;50.252;18.688;2023-04-06T03:41:46;-1.50;99.90
36924;DHT22;22841;50.252;18.688;2023-04-06T03:44:12;-1.50;99.90
36924;DHT22;22841;50.252;18.688;2023-04-06T03:46:38;-1.50;99.90
36924;DHT22;22841;50.252;18.688;2023-04-06T03:49:05;-1.50;99.90
36924;DHT22;22841;50.252;18.688;2023-04-06T03:51:31;-1.60;99.90
36924;DHT22;22841;50.252;18.688;2023-04-06T03:53:57;-1.60;99.90
36924;DHT22;22841;50.252;18.688;2023-04-06T03:56:23;-1.60;99.90
36924;DHT22;22841;50.252;18.688;2023-04-06T03:58:49;-1.60;99.90
36924;DHT22;22841;50.252;18.688;2023-04-06T04:01:17;-1.60;99.90
36924;DHT22;22841;50.252;18.688;2023-04-06T04:03:44;-1.60;99.90
36924;DHT22;22841;50.252;18.688;2023-04-06T04:06:10;-1.70;99.90
36924;DHT22;22841;50.252;18.688;2023-04-06T04:08:36;-1.70;99.90
36924;DHT22;22841;50.252;18.688;2023-04-06T04:11:02;-1.70;99.90
36924;DHT22;22841;50.252;18.688;2023-04-06T04:13:28;-1.80;99.90
36924;DHT22;22841;50.252;18.688;2023-04-06T04:15:54;-1.70;99.90
36924;DHT22;22841;50.252;18.688;2023-04-06T04:18:20;-1.80;99.90
36924;DHT22;22841;50.252;18.688;2023-04-06T04:20:47;-1.70;99.90
36924;DHT22;22841;50.252;18.688;2023-04-06T04:23:13;-1.80;99.90
36924;DHT22;22841;50.252;18.688;2023-04-06T04:25:39;-1.80;99.90
36924;DHT22;22841;50.252;18.688;2023-04-06T04:28:05;-1.80;99.90
36924;DHT22;22841;50.252;18.688;2023-04-06T04:30:31;-1.80;99.90
36924;DHT22;22841;50.252;18.688;2023-04-06T04:32:57;-1.80;99.90
36924;DHT22;22841;50.252;18.688;2023-04-06T04:35:23;-1.90;99.90
36924;DHT22;22841;50.252;18.688;2023-04-06T04:37:49;-1.80;99.90
36924;DHT22;22841;50.252;18.688;2023-04-06T04:40:15;-1.80;99.90
36924;DHT22;22841;50.252;18.688;2023-04-06T04:42:42;-1.90;99.90
36924;DHT22;22841;50.252;18.688;2023-04-06T04:45:08;-1.90;99.90
36924;DHT22;22841;50.252;18.688;2023-04-06T04:47:34;-1.90;99.90
36924;DHT22;22841;50.252;18.688;2023-04-06T04:50:00;-1.90;99.90
36924;DHT22;22841;50.252;18.688;2023-04-06T04:52:26;-1.90;99.90
36924;DHT22;22841;50.252;18.688;2023-04-06T04:54:53;-1.90;99.90
36924;DHT22;22841;50.252;18.688;2023-04-06T04:57:19;-1.90;99.90
36924;DHT22;22841;50.252;18.688;2023-04-06T04:59:45;-1.90;99.90
36924;DHT22;22841;50.252;18.688;2023-04-06T05:02:11;-1.90;99.90
36924;DHT22;22841;50.252;18.688;2023-04-06T05:04:37;-1.80;99.90
36924;DHT22;22841;50.252;18.688;2023-04-06T05:07:05;-1.80;99.90
36924;DHT22;22841;50.252;18.688;2023-04-06T05:09:31;-1.80;99.90
36924;DHT22;22841;50.252;18.688;2023-04-06T05:11:59;-1.80;99.90
36924;DHT22;22841;50.252;18.688;2023-04-06T05:14:28;-1.80;99.90
36924;DHT22;22841;50.252;18.688;2023-04-06T05:16:55;-1.80;99.90
36924;DHT22;22841;50.252;18.688;2023-04-06T05:19:21;-1.70;99.90
36924;DHT22;22841;50.252;18.688;2023-04-06T05:21:47;-1.70;99.90
36924;DHT22;22841;50.252;18.688;2023-04-06T05:24:13;-1.70;99.90
36924;DHT22;22841;50.252;18.688;2023-04-06T05:26:39;-1.70;99.90
36924;DHT22;22841;50.252;18.688;2023-04-06T05:29:05;-1.60;99.90
36924;DHT22;22841;50.252;18.688;2023-04-06T05:31:32;-1.60;99.90
36924;DHT22;22841;50.252;18.688;2023-04-06T05:33:58;-1.60;99.90
36924;DHT22;22841;50.252;18.688;2023-04-06T05:36:24;-1.60;99.90
36924;DHT22;22841;50.252;18.688;2023-04-06T05:38:50;-1.50;99.90
36924;DHT22;22841;50.252;18.688;2023-04-06T05:41:18;-1.50;99.90
36924;DHT22;22841;50.252;18.688;2023-04-06T05:43:44;-1.40;99.90
36924;DHT22;22841;50.252;18.688;2023-04-06T05:46:10;-1.40;99.90
36924;DHT22;22841;50.252;18.688;2023-04-06T05:48:36;-1.30;99.90
36924;DHT22;22841;50.252;18.688;2023-04-06T05:51:02;-1.30;99.90
36924;DHT22;22841;50.252;18.688;2023-04-06T05:53:32;-1.20;99.90
36924;DHT22;22841;50.252;18.688;2023-04-06T05:56:02;-1.20;99.90
36924;DHT22;22841;50.252;18.688;2023-04-06T05:58:28;-1.10;99.90
36924;DHT22;22841;50.252;18.688;2023-04-06T06:01:01;-1.00;99.90
36924;DHT22;22841;50.252;18.688;2023-04-06T06:03:29;-1.00;99.90
36924;DHT22;22841;50.252;18.688;2023-04-06T06:06:00;-0.90;99.90
36924;DHT22;22841;50.252;18.688;2023-04-06T06:08:26;-0.90;99.90
36924;DHT22;22841;50.252;18.688;2023-04-06T06:10:52;-0.80;99.90
36924;DHT22;22841;50.252;18.688;2023-04-06T06:13:18;-0.80;99.90
36924;DHT22;22841;50.252;18.688;2023-04-06T06:15:45;-0.80;99.90
36924;DHT22;22841;50.252;18.688;2023-04-06T06:18:11;-0.80;99.90
36924;DHT22;22841;50.252;18.688;2023-04-06T06:20:37;-0.70;99.90
36924;DHT22;22841;50.252;18.688;2023-04-06T06:23:03;-0.70;99.90
36924;DHT22;22841;50.252;18.688;2023-04-06T06:25:29;-0.60;99.90
36924;DHT22;22841;50.252;18.688;2023-04-06T06:27:57;-0.60;99.90
36924;DHT22;22841;50.252;18.688;2023-04-06T06:30:23;-0.60;99.90
36924;DHT22;22841;50.252;18.688;2023-04-06T06:32:49;-0.50;99.90
36924;DHT22;22841;50.252;18.688;2023-04-06T06:35:16;-0.40;99.90
36924;DHT22;22841;50.252;18.688;2023-04-06T06:37:42;-0.40;99.90
36924;DHT22;22841;50.252;18.688;2023-04-06T06:40:11;-0.40;99.90
36924;DHT22;22841;50.252;18.688;2023-04-06T06:42:39;-0.30;99.90
36924;DHT22;22841;50.252;18.688;2023-04-06T06:45:07;-0.20;99.90
36924;DHT22;22841;50.252;18.688;2023-04-06T06:47:33;-0.10;99.90
36924;DHT22;22841;50.252;18.688;2023-04-06T06:49:59;0.00;99.90
36924;DHT22;22841;50.252;18.688;2023-04-06T06:52:26;0.00;99.90
36924;DHT22;22841;50.252;18.688;2023-04-06T06:54:52;0.10;99.90
36924;DHT22;22841;50.252;18.688;2023-04-06T06:57:18;0.20;99.90
36924;DHT22;22841;50.252;18.688;2023-04-06T06:59:44;0.20;99.90
36924;DHT22;22841;50.252;18.688;2023-04-06T07:02:10;0.30;99.90
36924;DHT22;22841;50.252;18.688;2023-04-06T07:04:36;0.30;99.90
36924;DHT22;22841;50.252;18.688;2023-04-06T07:07:02;0.50;99.90
36924;DHT22;22841;50.252;18.688;2023-04-06T07:09:29;0.50;99.90
36924;DHT22;22841;50.252;18.688;2023-04-06T07:11:55;0.60;99.90
36924;DHT22;22841;50.252;18.688;2023-04-06T07:14:22;0.60;99.90
36924;DHT22;22841;50.252;18.688;2023-04-06T07:16:48;0.70;99.90
36924;DHT22;22841;50.252;18.688;2023-04-06T07:19:15;0.80;99.90
36924;DHT22;22841;50.252;18.688;2023-04-06T07:21:41;0.80;99.90
36924;DHT22;22841;50.252;18.688;2023-04-06T07:24:07;0.90;99.90
36924;DHT22;22841;50.252;18.688;2023-04-06T07:26:34;1.10;99.90
36924;DHT22;22841;50.252;18.688;2023-04-06T07:29:00;1.10;99.90
36924;DHT22;22841;50.252;18.688;2023-04-06T07:31:26;1.20;99.90
36924;DHT22;22841;50.252;18.688;2023-04-06T07:33:52;1.20;99.90
36924;DHT22;22841;50.252;18.688;2023-04-06T07:36:18;1.20;99.90
36924;DHT22;22841;50.252;18.688;2023-04-06T07:38:44;1.30;99.90
36924;DHT22;22841;50.252;18.688;2023-04-06T07:41:11;1.30;99.90
36924;DHT22;22841;50.252;18.688;2023-04-06T07:43:38;1.40;99.90
36924;DHT22;22841;50.252;18.688;2023-04-06T07:46:04;1.50;99.90
36924;DHT22;22841;50.252;18.688;2023-04-06T07:48:30;1.60;99.90
36924;DHT22;22841;50.252;18.688;2023-04-06T07:51:03;1.60;99.90
36924;DHT22;22841;50.252;18.688;2023-04-06T07:53:30;1.70;99.90
36924;DHT22;22841;50.252;18.688;2023-04-06T07:55:58;1.70;99.90
36924;DHT22;22841;50.252;18.688;2023-04-06T07:58:24;1.80;99.90
36924;DHT22;22841;50.252;18.688;2023-04-06T08:00:50;1.80;99.90
36924;DHT22;22841;50.252;18.688;2023-04-06T08:03:16;1.90;99.90
36924;DHT22;22841;50.252;18.688;2023-04-06T08:05:42;2.00;99.90
36924;DHT22;22841;50.252;18.688;2023-04-06T08:08:08;2.20;99.90
36924;DHT22;22841;50.252;18.688;2023-04-06T08:10:35;2.30;99.90
36924;DHT22;22841;50.252;18.688;2023-04-06T08:13:01;2.50;99.90
36924;DHT22;22841;50.252;18.688;2023-04-06T08:15:28;2.50;99.90
36924;DHT22;22841;50.252;18.688;2023-04-06T08:17:54;2.70;99.90
36924;DHT22;22841;50.252;18.688;2023-04-06T08:20:23;2.80;99.90
36924;DHT22;22841;50.252;18.688;2023-04-06T08:22:49;2.90;99.90
36924;DHT22;22841;50.252;18.688;2023-04-06T08:25:15;3.00;99.90
36924;DHT22;22841;50.252;18.688;2023-04-06T08:27:41;3.20;99.90
36924;DHT22;22841;50.252;18.688;2023-04-06T08:30:07;3.20;99.90
36924;DHT22;22841;50.252;18.688;2023-04-06T08:32:33;3.30;99.90
36924;DHT22;22841;50.252;18.688;2023-04-06T08:34:59;3.40;99.90
36924;DHT22;22841;50.252;18.688;2023-04-06T08:37:25;3.50;99.90
36924;DHT22;22841;50.252;18.688;2023-04-06T08:39:51;3.60;99.90
36924;DHT22;22841;50.252;18.688;2023-04-06T08:42:21;3.60;99.90
36924;DHT22;22841;50.252;18.688;2023-04-06T08:44:50;3.60;99.90
36924;DHT22;22841;50.252;18.688;2023-04-06T08:47:18;3.60;99.90
36924;DHT22;22841;50.252;18.688;2023-04-06T08:49:45;3.70;99.90
36924;DHT22;22841;50.252;18.688;2023-04-06T08:52:12;3.80;99.90
36924;DHT22;22841;50.252;18.688;2023-04-06T08:54:38;3.80;99.90
36924;DHT22;22841;50.252;18.688;2023-04-06T08:57:05;3.70;99.90
36924;DHT22;22841;50.252;18.688;2023-04-06T08:59:31;3.50;99.90
36924;DHT22;22841;50.252;18.688;2023-04-06T09:01:59;3.50;99.90
36924;DHT22;22841;50.252;18.688;2023-04-06T09:04:28;3.50;99.90
36924;DHT22;22841;50.252;18.688;2023-04-06T09:06:54;3.70;99.90
36924;DHT22;22841;50.252;18.688;2023-04-06T09:09:20;3.90;99.90
36924;DHT22;22841;50.252;18.688;2023-04-06T09:11:48;4.00;99.90
36924;DHT22;22841;50.252;18.688;2023-04-06T09:14:14;4.20;99.90
36924;DHT22;22841;50.252;18.688;2023-04-06T09:16:45;4.50;99.90
36924;DHT22;22841;50.252;18.688;2023-04-06T09:19:12;4.60;99.90
36924;DHT22;22841;50.252;18.688;2023-04-06T09:21:38;4.70;99.90
36924;DHT22;22841;50.252;18.688;2023-04-06T09:24:07;4.70;99.90
36924;DHT22;22841;50.252;18.688;2023-04-06T09:26:45;4.50;99.90
36924;DHT22;22841;50.252;18.688;2023-04-06T09:29:22;4.40;99.90
36924;DHT22;22841;50.252;18.688;2023-04-06T09:31:49;4.40;99.90
36924;DHT22;22841;50.252;18.688;2023-04-06T09:34:22;4.20;99.90
36924;DHT22;22841;50.252;18.688;2023-04-06T09:36:51;4.00;99.90
36924;DHT22;22841;50.252;18.688;2023-04-06T09:39:21;4.00;99.90
36924;DHT22;22841;50.252;18.688;2023-04-06T09:41:51;4.00;99.90
36924;DHT22;22841;50.252;18.688;2023-04-06T09:44:17;3.80;99.90
36924;DHT22;22841;50.252;18.688;2023-04-06T09:46:44;3.90;99.90
36924;DHT22;22841;50.252;18.688;2023-04-06T09:49:12;4.00;99.90
36924;DHT22;22841;50.252;18.688;2023-04-06T09:51:58;4.10;99.90
36924;DHT22;22841;50.252;18.688;2023-04-06T09:54:29;4.20;99.90
36924;DHT22;22841;50.252;18.688;2023-04-06T09:57:11;4.30;99.90
36924;DHT22;22841;50.252;18.688;2023-04-06T10:00:02;4.30;99.90
36924;DHT22;22841;50.252;18.688;2023-04-06T10:02:58;4.20;99.90
36924;DHT22;22841;50.252;18.688;2023-04-06T10:08:09;4.50;99.90
36924;DHT22;22841;50.252;18.688;2023-04-06T10:10:36;4.60;99.90
36924;DHT22;22841;50.252;18.688;2023-04-06T10:13:04;4.60;99.90
36924;DHT22;22841;50.252;18.688;2023-04-06T10:15:30;4.60;99.90
36924;DHT22;22841;50.252;18.688;2023-04-06T10:17:58;4.60;99.90
36924;DHT22;22841;50.252;18.688;2023-04-06T10:23:01;4.60;99.90
36924;DHT22;22841;50.252;18.688;2023-04-06T10:25:32;4.60;99.90
36924;DHT22;22841;50.252;18.688;2023-04-06T10:28:05;4.60;99.90
36924;DHT22;22841;50.252;18.688;2023-04-06T10:30:32;4.70;99.90
36924;DHT22;22841;50.252;18.688;2023-04-06T10:32:58;4.60;99.90
36924;DHT22;22841;50.252;18.688;2023-04-06T10:35:36;4.70;99.90
36924;DHT22;22841;50.252;18.688;2023-04-06T10:38:04;4.70;99.90
36924;DHT22;22841;50.252;18.688;2023-04-06T10:40:31;4.80;99.90
36924;DHT22;22841;50.252;18.688;2023-04-06T10:43:11;4.80;99.90
36924;DHT22;22841;50.252;18.688;2023-04-06T10:45:37;4.70;99.90
36924;DHT22;22841;50.252;18.688;2023-04-06T10:48:17;4.80;99.90
36924;DHT22;22841;50.252;18.688;2023-04-06T10:50:46;4.70;99.90
36924;DHT22;22841;50.252;18.688;2023-04-06T10:53:24;4.70;99.90
36924;DHT22;22841;50.252;18.688;2023-04-06T10:55:52;4.70;99.90
36924;DHT22;22841;50.252;18.688;2023-04-06T10:58:18;4.80;99.90
36924;DHT22;22841;50.252;18.688;2023-04-06T11:00:48;4.80;99.90
36924;DHT22;22841;50.252;18.688;2023-04-06T11:03:15;4.80;99.90
36924;DHT22;22841;50.252;18.688;2023-04-06T11:05:46;4.80;99.90
36924;DHT22;22841;50.252;18.688;2023-04-06T11:08:25;4.80;99.90
36924;DHT22;22841;50.252;18.688;2023-04-06T11:10:52;4.90;99.90
36924;DHT22;22841;50.252;18.688;2023-04-06T11:13:18;4.80;99.90
36924;DHT22;22841;50.252;18.688;2023-04-06T11:15:44;4.90;99.90
36924;DHT22;22841;50.252;18.688;2023-04-06T11:18:10;4.70;99.90
36924;DHT22;22841;50.252;18.688;2023-04-06T11:20:36;4.70;99.90
36924;DHT22;22841;50.252;18.688;2023-04-06T11:23:03;4.70;99.90
36924;DHT22;22841;50.252;18.688;2023-04-06T11:25:29;4.70;99.90
36924;DHT22;22841;50.252;18.688;2023-04-06T11:27:57;4.60;99.90
36924;DHT22;22841;50.252;18.688;2023-04-06T11:30:23;4.60;99.90
36924;DHT22;22841;50.252;18.688;2023-04-06T11:32:49;4.60;99.90
36924;DHT22;22841;50.252;18.688;2023-04-06T11:35:23;4.60;99.90
36924;DHT22;22841;50.252;18.688;2023-04-06T11:37:50;4.80;99.90
36924;DHT22;22841;50.252;18.688;2023-04-06T11:40:20;4.80;99.90
36924;DHT22;22841;50.252;18.688;2023-04-06T11:42:52;4.80;99.90
36924;DHT22;22841;50.252;18.688;2023-04-06T11:45:19;4.90;99.90
36924;DHT22;22841;50.252;18.688;2023-04-06T11:47:45;4.90;99.90
36924;DHT22;22841;50.252;18.688;2023-04-06T11:50:20;4.80;99.90
36924;DHT22;22841;50.252;18.688;2023-04-06T11:52:58;4.80;99.90
36924;DHT22;22841;50.252;18.688;2023-04-06T11:55:25;4.70;99.90
36924;DHT22;22841;50.252;18.688;2023-04-06T11:57:51;4.70;99.90
36924;DHT22;22841;50.252;18.688;2023-04-06T12:00:17;4.80;99.90
36924;DHT22;22841;50.252;18.688;2023-04-06T12:02:48;4.90;99.90
36924;DHT22;22841;50.252;18.688;2023-04-06T12:05:14;4.90;99.90
36924;DHT22;22841;50.252;18.688;2023-04-06T12:07:40;4.80;99.90
36924;DHT22;22841;50.252;18.688;2023-04-06T12:10:06;4.80;99.90
36924;DHT22;22841;50.252;18.688;2023-04-06T12:12:32;4.90;99.90
36924;DHT22;22841;50.252;18.688;2023-04-06T12:14:59;4.90;99.90
36924;DHT22;22841;50.252;18.688;2023-04-06T12:17:25;4.80;99.90
36924;DHT22;22841;50.252;18.688;2023-04-06T12:19:51;4.80;99.90
36924;DHT22;22841;50.252;18.688;2023-04-06T12:22:18;4.80;99.90
36924;DHT22;22841;50.252;18.688;2023-04-06T12:24:44;4.80;99.90
36924;DHT22;22841;50.252;18.688;2023-04-06T12:27:10;4.90;99.90
36924;DHT22;22841;50.252;18.688;2023-04-06T12:29:40;4.90;99.90
36924;DHT22;22841;50.252;18.688;2023-04-06T12:32:06;4.90;99.90
36924;DHT22;22841;50.252;18.688;2023-04-06T12:34:32;4.80;99.90
36924;DHT22;22841;50.252;18.688;2023-04-06T12:36:58;4.80;99.90
36924;DHT22;22841;50.252;18.688;2023-04-06T12:39:24;4.80;99.90
36924;DHT22;22841;50.252;18.688;2023-04-06T12:41:51;4.80;99.90
36924;DHT22;22841;50.252;18.688;2023-04-06T12:44:17;4.80;99.90
36924;DHT22;22841;50.252;18.688;2023-04-06T12:46:43;4.80;99.90
36924;DHT22;22841;50.252;18.688;2023-04-06T12:49:09;4.70;99.90
36924;DHT22;22841;50.252;18.688;2023-04-06T12:51:35;4.80;99.90
36924;DHT22;22841;50.252;18.688;2023-04-06T12:54:01;4.70;99.90
36924;DHT22;22841;50.252;18.688;2023-04-06T12:56:27;4.60;99.90
36924;DHT22;22841;50.252;18.688;2023-04-06T12:58:53;4.60;99.90
36924;DHT22;22841;50.252;18.688;2023-04-06T13:01:19;4.60;99.90
36924;DHT22;22841;50.252;18.688;2023-04-06T13:03:47;4.60;99.90
36924;DHT22;22841;50.252;18.688;2023-04-06T13:06:13;4.50;99.90
36924;DHT22;22841;50.252;18.688;2023-04-06T13:08:40;4.50;99.90
36924;DHT22;22841;50.252;18.688;2023-04-06T13:11:06;4.50;99.90
36924;DHT22;22841;50.252;18.688;2023-04-06T13:13:35;4.50;99.90
36924;DHT22;22841;50.252;18.688;2023-04-06T13:16:03;4.40;99.90
36924;DHT22;22841;50.252;18.688;2023-04-06T13:18:31;4.50;99.90
36924;DHT22;22841;50.252;18.688;2023-04-06T13:20:58;4.50;99.90
36924;DHT22;22841;50.252;18.688;2023-04-06T13:23:27;4.50;99.90
36924;DHT22;22841;50.252;18.688;2023-04-06T13:26:12;4.50;99.90
36924;DHT22;22841;50.252;18.688;2023-04-06T13:28:39;4.50;99.90
36924;DHT22;22841;50.252;18.688;2023-04-06T13:31:05;4.50;99.90
36924;DHT22;22841;50.252;18.688;2023-04-06T13:33:32;4.50;99.90
36924;DHT22;22841;50.252;18.688;2023-04-06T13:35:59;4.50;99.90
36924;DHT22;22841;50.252;18.688;2023-04-06T13:38:25;4.50;99.90
36924;DHT22;22841;50.252;18.688;2023-04-06T13:40:51;4.50;99.90
36924;DHT22;22841;50.252;18.688;2023-04-06T13:43:17;4.50;99.90
36924;DHT22;22841;50.252;18.688;2023-04-06T13:45:51;4.50;99.90
36924;DHT22;22841;50.252;18.688;2023-04-06T13:48:18;4.50;99.90
36924;DHT22;22841;50.252;18.688;2023-04-06T13:50:44;4.40;99.90
36924;DHT22;22841;50.252;18.688;2023-04-06T13:53:11;4.40;99.90
36924;DHT22;22841;50.252;18.688;2023-04-06T13:55:37;4.30;99.90
36924;DHT22;22841;50.252;18.688;2023-04-06T13:58:03;4.30;99.90
36924;DHT22;22841;50.252;18.688;2023-04-06T14:00:29;4.20;99.90
36924;DHT22;22841;50.252;18.688;2023-04-06T14:02:55;4.20;99.90
36924;DHT22;22841;50.252;18.688;2023-04-06T14:05:21;4.10;99.90
36924;DHT22;22841;50.252;18.688;2023-04-06T14:07:49;4.00;99.90
36924;DHT22;22841;50.252;18.688;2023-04-06T14:10:15;3.90;99.90
36924;DHT22;22841;50.252;18.688;2023-04-06T14:12:45;3.80;99.90
36924;DHT22;22841;50.252;18.688;2023-04-06T14:15:11;3.90;99.90
36924;DHT22;22841;50.252;18.688;2023-04-06T14:17:38;3.90;99.90
36924;DHT22;22841;50.252;18.688;2023-04-06T14:20:06;3.90;99.90
36924;DHT22;22841;50.252;18.688;2023-04-06T14:22:32;3.80;99.90
36924;DHT22;22841;50.252;18.688;2023-04-06T14:24:58;3.70;99.90
36924;DHT22;22841;50.252;18.688;2023-04-06T14:27:24;3.50;99.90
36924;DHT22;22841;50.252;18.688;2023-04-06T14:29:51;3.40;99.90
36924;DHT22;22841;50.252;18.688;2023-04-06T14:32:20;3.40;99.90
36924;DHT22;22841;50.252;18.688;2023-04-06T14:34:46;3.40;99.90
36924;DHT22;22841;50.252;18.688;2023-04-06T14:37:12;3.40;99.90
36924;DHT22;22841;50.252;18.688;2023-04-06T14:39:38;3.40;99.90
36924;DHT22;22841;50.252;18.688;2023-04-06T14:42:04;3.30;99.90
36924;DHT22;22841;50.252;18.688;2023-04-06T14:44:33;3.40;99.90
36924;DHT22;22841;50.252;18.688;2023-04-06T14:46:59;3.40;99.90
36924;DHT22;22841;50.252;18.688;2023-04-06T14:49:25;3.40;99.90
36924;DHT22;22841;50.252;18.688;2023-04-06T14:51:51;3.40;99.90
36924;DHT22;22841;50.252;18.688;2023-04-06T14:54:17;3.40;99.90
36924;DHT22;22841;50.252;18.688;2023-04-06T14:56:43;3.40;99.90
36924;DHT22;22841;50.252;18.688;2023-04-06T14:59:09;3.50;99.90
36924;DHT22;22841;50.252;18.688;2023-04-06T15:01:36;3.40;99.90
36924;DHT22;22841;50.252;18.688;2023-04-06T15:04:03;3.40;99.90
36924;DHT22;22841;50.252;18.688;2023-04-06T15:06:29;3.40;99.90
36924;DHT22;22841;50.252;18.688;2023-04-06T15:08:56;3.40;99.90
36924;DHT22;22841;50.252;18.688;2023-04-06T15:11:22;3.30;99.90
36924;DHT22;22841;50.252;18.688;2023-04-06T15:13:48;3.40;99.90
36924;DHT22;22841;50.252;18.688;2023-04-06T15:16:14;3.40;99.90
36924;DHT22;22841;50.252;18.688;2023-04-06T15:18:40;3.40;99.90
36924;DHT22;22841;50.252;18.688;2023-04-06T15:21:06;3.40;99.90
36924;DHT22;22841;50.252;18.688;2023-04-06T15:23:33;3.40;99.90
36924;DHT22;22841;50.252;18.688;2023-04-06T15:26:00;3.40;99.90
36924;DHT22;22841;50.252;18.688;2023-04-06T15:28:27;3.40;99.90
36924;DHT22;22841;50.252;18.688;2023-04-06T15:30:54;3.40;99.90